sensor_id;sensor_type;location;lat;lon;timestamp;pressure;altitude;pressure_sealevel;temperature;humidity
46955;BME280;32708;51.212;6.788;2023-05-19T00:02:00;101893.31;;;17.36;57.58
46955;BME280;32708;51.212;6.788;2023-05-19T00:04:27;101898.59;;;17.20;58.11
46955;BME280;32708;51.212;6.788;2023-05-19T00:06:54;101899.59;;;17.78;56.67
46955;BME280;32708;51.212;6.788;2023-05-19T00:09:21;101908.22;;;17.35;56.87
46955;BME280;32708;51.212;6.788;2023-05-19T00:11:47;101904.13;;;17.41;58.04
46955;BME280;32708;51.212;6.788;2023-05-19T00:14:14;101901.91;;;16.84;60.76
46955;BME280;32708;51.212;6.788;2023-05-19T00:16:42;101902.84;;;17.39;58.64
46955;BME280;32708;51.212;6.788;2023-05-19T00:19:09;101899.53;;;17.66;57.96
46955;BME280;32708;51.212;6.788;2023-05-19T00:21:35;101901.03;;;17.43;59.03
46955;BME280;32708;51.212;6.788;2023-05-19T00:24:06;101907.16;;;16.68;60.26
46955;BME280;32708;51.212;6.788;2023-05-19T00:26:32;101906.84;;;16.70;60.89
46955;BME280;32708;51.212;6.788;2023-05-19T00:29:03;101894.78;;;16.83;61.30
46955;BME280;32708;51.212;6.788;2023-05-19T00:31:29;101904.03;;;16.78;61.59
46955;BME280;32708;51.212;6.788;2023-05-19T00:33:56;101903.97;;;16.96;60.97
46955;BME280;32708;51.212;6.788;2023-05-19T00:36:24;101898.72;;;17.03;60.47
46955;BME280;32708;51.212;6.788;2023-05-19T00:38:50;101899.53;;;17.03;60.97
46955;BME280;32708;51.212;6.788;2023-05-19T00:41:17;101898.06;;;17.27;59.94
46955;BME280;32708;51.212;6.788;2023-05-19T00:43:43;101903.41;;;16.82;61.63
46955;BME280;32708;51.212;6.788;2023-05-19T00:46:09;101901.09;;;17.13;60.91
46955;BME280;32708;51.212;6.788;2023-05-19T00:48:35;101897.94;;;17.23;60.31
46955;BME280;32708;51.212;6.788;2023-05-19T00:51:04;101904.91;;;16.23;62.98
46955;BME280;32708;51.212;6.788;2023-05-19T00:53:33;101905.72;;;16.71;61.28
46955;BME280;32708;51.212;6.788;2023-05-19T00:56:01;101895.25;;;16.85;62.20
46955;BME280;32708;51.212;6.788;2023-05-19T00:58:30;101892.84;;;16.84;61.27
46955;BME280;32708;51.212;6.788;2023-05-19T01:00:58;101898.13;;;16.59;61.62
46955;BME280;32708;51.212;6.788;2023-05-19T01:03:31;101897.56;;;17.04;60.98
46955;BME280;32708;51.212;6.788;2023-05-19T01:06:01;101896.63;;;16.70;61.30
46955;BME280;32708;51.212;6.788;2023-05-19T01:08:35;101892.94;;;16.96;61.59
46955;BME280;32708;51.212;6.788;2023-05-19T01:11:04;101889.44;;;16.40;62.50
46955;BME280;32708;51.212;6.788;2023-05-19T01:13:33;101892.13;;;16.57;63.94
46955;BME280;32708;51.212;6.788;2023-05-19T01:16:24;101881.31;;;16.82;62.81
46955;BME280;32708;51.212;6.788;2023-05-19T01:19:13;101893.78;;;16.88;62.00
46955;BME280;32708;51.212;6.788;2023-05-19T01:30:36;101875.41;;;16.92;61.05
46955;BME280;32708;51.212;6.788;2023-05-19T01:33:12;101884.00;;;16.61;62.71
46955;BME280;32708;51.212;6.788;2023-05-19T01:35:42;101878.88;;;16.50;62.83
46955;BME280;32708;51.212;6.788;2023-05-19T01:38:11;101878.13;;;16.33;64.15
46955;BME280;32708;51.212;6.788;2023-05-19T01:40:40;101872.31;;;16.64;62.17
46955;BME280;32708;51.212;6.788;2023-05-19T01:43:17;101875.81;;;16.82;62.10
46955;BME280;32708;51.212;6.788;2023-05-19T01:45:44;101880.25;;;16.74;63.16
46955;BME280;32708;51.212;6.788;2023-05-19T01:48:11;101884.81;;;16.23;65.38
46955;BME280;32708;51.212;6.788;2023-05-19T01:50:40;101880.56;;;16.64;63.30
46955;BME280;32708;51.212;6.788;2023-05-19T01:53:07;101885.63;;;16.62;63.94
46955;BME280;32708;51.212;6.788;2023-05-19T01:55:41;101887.50;;;16.40;63.63
46955;BME280;32708;51.212;6.788;2023-05-19T01:58:20;101884.34;;;16.12;65.10
46955;BME280;32708;51.212;6.788;2023-05-19T02:04:09;101890.75;;;15.87;67.09
46955;BME280;32708;51.212;6.788;2023-05-19T02:07:05;101896.81;;;16.18;66.51
46955;BME280;32708;51.212;6.788;2023-05-19T02:10:03;101893.13;;;16.06;67.83
46955;BME280;32708;51.212;6.788;2023-05-19T02:12:37;101895.75;;;15.93;68.20
46955;BME280;32708;51.212;6.788;2023-05-19T02:15:23;101903.34;;;15.27;70.43
46955;BME280;32708;51.212;6.788;2023-05-19T02:17:54;101901.44;;;15.36;69.81
46955;BME280;32708;51.212;6.788;2023-05-19T02:20:23;101898.84;;;15.57;70.71
46955;BME280;32708;51.212;6.788;2023-05-19T02:22:49;101894.31;;;15.53;70.69
46955;BME280;32708;51.212;6.788;2023-05-19T02:25:15;101895.78;;;15.50;70.71
46955;BME280;32708;51.212;6.788;2023-05-19T02:27:41;101895.13;;;15.88;70.97
46955;BME280;32708;51.212;6.788;2023-05-19T02:30:09;101886.06;;;15.61;71.20
46955;BME280;32708;51.212;6.788;2023-05-19T02:32:36;101898.97;;;15.00;75.21
46955;BME280;32708;51.212;6.788;2023-05-19T02:35:02;101886.19;;;15.91;70.55
46955;BME280;32708;51.212;6.788;2023-05-19T02:37:28;101881.22;;;15.67;71.88
46955;BME280;32708;51.212;6.788;2023-05-19T02:39:56;101881.38;;;15.79;70.97
46955;BME280;32708;51.212;6.788;2023-05-19T02:42:22;101886.97;;;14.96;72.73
46955;BME280;32708;51.212;6.788;2023-05-19T02:44:48;101879.72;;;15.78;71.19
46955;BME280;32708;51.212;6.788;2023-05-19T02:47:14;101885.69;;;15.11;74.37
46955;BME280;32708;51.212;6.788;2023-05-19T02:49:40;101879.25;;;15.50;72.19
46955;BME280;32708;51.212;6.788;2023-05-19T02:52:07;101873.25;;;15.39;71.47
46955;BME280;32708;51.212;6.788;2023-05-19T02:54:34;101873.91;;;15.45;72.85
46955;BME280;32708;51.212;6.788;2023-05-19T02:57:00;101871.47;;;15.00;72.93
46955;BME280;32708;51.212;6.788;2023-05-19T02:59:27;101868.72;;;15.52;73.00
46955;BME280;32708;51.212;6.788;2023-05-19T03:01:59;101862.72;;;15.41;72.11
46955;BME280;32708;51.212;6.788;2023-05-19T03:04:27;101859.97;;;15.33;72.18
46955;BME280;32708;51.212;6.788;2023-05-19T03:06:54;101866.13;;;15.12;73.71
46955;BME280;32708;51.212;6.788;2023-05-19T03:09:20;101866.78;;;15.53;72.71
46955;BME280;32708;51.212;6.788;2023-05-19T03:11:47;101874.53;;;15.42;72.66
46955;BME280;32708;51.212;6.788;2023-05-19T03:14:13;101880.38;;;15.32;73.39
46955;BME280;32708;51.212;6.788;2023-05-19T03:16:39;101878.72;;;14.88;75.98
46955;BME280;32708;51.212;6.788;2023-05-19T03:19:07;101878.41;;;14.98;74.18
46955;BME280;32708;51.212;6.788;2023-05-19T03:21:34;101876.00;;;15.31;73.16
46955;BME280;32708;51.212;6.788;2023-05-19T03:24:01;101882.78;;;15.42;72.87
46955;BME280;32708;51.212;6.788;2023-05-19T03:26:27;101879.91;;;15.38;73.85
46955;BME280;32708;51.212;6.788;2023-05-19T03:28:55;101880.88;;;15.51;73.11
46955;BME280;32708;51.212;6.788;2023-05-19T03:31:21;101882.78;;;15.07;74.35
46955;BME280;32708;51.212;6.788;2023-05-19T03:33:47;101881.34;;;15.19;75.64
46955;BME280;32708;51.212;6.788;2023-05-19T03:36:13;101872.94;;;15.67;72.59
46955;BME280;32708;51.212;6.788;2023-05-19T03:38:40;101877.31;;;15.25;74.25
46955;BME280;32708;51.212;6.788;2023-05-19T03:41:06;101870.19;;;15.41;72.76
46955;BME280;32708;51.212;6.788;2023-05-19T03:43:33;101877.16;;;15.30;73.55
46955;BME280;32708;51.212;6.788;2023-05-19T03:46:04;101870.19;;;15.41;73.34
46955;BME280;32708;51.212;6.788;2023-05-19T03:48:49;101877.28;;;15.07;73.71
46955;BME280;32708;51.212;6.788;2023-05-19T03:51:22;101880.38;;;15.23;74.64
46955;BME280;32708;51.212;6.788;2023-05-19T03:53:51;101881.19;;;15.32;73.74
46955;BME280;32708;51.212;6.788;2023-05-19T03:56:18;101874.53;;;15.33;73.30
46955;BME280;32708;51.212;6.788;2023-05-19T03:58:45;101881.34;;;15.27;73.21
46955;BME280;32708;51.212;6.788;2023-05-19T04:01:14;101872.59;;;15.17;74.19
46955;BME280;32708;51.212;6.788;2023-05-19T04:03:40;101870.03;;;16.36;69.10
46955;BME280;32708;51.212;6.788;2023-05-19T04:06:07;101865.44;;;16.78;65.26
46955;BME280;32708;51.212;6.788;2023-05-19T04:08:33;101870.69;;;17.22;67.30
46955;BME280;32708;51.212;6.788;2023-05-19T04:11:00;101869.81;;;16.41;72.38
46955;BME280;32708;51.212;6.788;2023-05-19T04:13:26;101869.84;;;16.33;67.42
46955;BME280;32708;51.212;6.788;2023-05-19T04:15:52;101871.13;;;16.44;66.04
46955;BME280;32708;51.212;6.788;2023-05-19T04:18:18;101863.78;;;17.28;64.49
46955;BME280;32708;51.212;6.788;2023-05-19T04:20:44;101864.53;;;17.91;61.66
46955;BME280;32708;51.212;6.788;2023-05-19T04:23:10;101861.16;;;17.52;62.49
46955;BME280;32708;51.212;6.788;2023-05-19T04:25:37;101862.78;;;17.74;61.55
46955;BME280;32708;51.212;6.788;2023-05-19T04:28:03;101859.88;;;17.50;61.51
46955;BME280;32708;51.212;6.788;2023-05-19T04:30:29;101859.41;;;17.27;62.77
46955;BME280;32708;51.212;6.788;2023-05-19T04:32:56;101861.47;;;18.05;62.55
46955;BME280;32708;51.212;6.788;2023-05-19T04:35:23;101865.63;;;17.45;61.35
46955;BME280;32708;51.212;6.788;2023-05-19T04:37:50;101859.09;;;17.82;59.98
46955;BME280;32708;51.212;6.788;2023-05-19T04:40:19;101850.13;;;19.20;53.98
46955;BME280;32708;51.212;6.788;2023-05-19T04:42:51;101862.53;;;18.49;57.14
46955;BME280;32708;51.212;6.788;2023-05-19T04:45:19;101856.31;;;18.28;57.50
46955;BME280;32708;51.212;6.788;2023-05-19T04:47:49;101866.22;;;18.17;58.93
46955;BME280;32708;51.212;6.788;2023-05-19T04:50:15;101855.75;;;20.39;51.25
46955;BME280;32708;51.212;6.788;2023-05-19T04:52:42;101855.50;;;19.41;51.39
46955;BME280;32708;51.212;6.788;2023-05-19T04:55:10;101863.81;;;18.52;54.45
46955;BME280;32708;51.212;6.788;2023-05-19T04:57:38;101859.97;;;19.17;53.18
46955;BME280;32708;51.212;6.788;2023-05-19T05:00:07;101860.47;;;19.91;52.99
46955;BME280;32708;51.212;6.788;2023-05-19T05:02:45;101857.56;;;20.31;50.82
46955;BME280;32708;51.212;6.788;2023-05-19T05:05:12;101860.63;;;19.55;49.53
46955;BME280;32708;51.212;6.788;2023-05-19T05:07:38;101845.44;;;21.06;48.55
46955;BME280;32708;51.212;6.788;2023-05-19T05:10:06;101844.78;;;20.58;47.42
46955;BME280;32708;51.212;6.788;2023-05-19T05:12:34;101856.13;;;20.53;48.76
46955;BME280;32708;51.212;6.788;2023-05-19T05:15:00;101848.91;;;22.00;44.56
46955;BME280;32708;51.212;6.788;2023-05-19T05:17:27;101865.13;;;20.82;48.62
46955;BME280;32708;51.212;6.788;2023-05-19T05:19:54;101854.63;;;22.30;44.63
46955;BME280;32708;51.212;6.788;2023-05-19T05:22:20;101859.19;;;21.77;45.03
46955;BME280;32708;51.212;6.788;2023-05-19T05:24:48;101848.97;;;21.61;44.94
46955;BME280;32708;51.212;6.788;2023-05-19T05:27:14;101850.47;;;22.20;43.72
46955;BME280;32708;51.212;6.788;2023-05-19T05:29:40;101848.22;;;21.84;43.46
46955;BME280;32708;51.212;6.788;2023-05-19T05:32:07;101852.13;;;22.02;44.34
46955;BME280;32708;51.212;6.788;2023-05-19T05:34:34;101849.25;;;22.67;42.38
46955;BME280;32708;51.212;6.788;2023-05-19T05:37:02;101848.94;;;23.29;40.86
46955;BME280;32708;51.212;6.788;2023-05-19T05:39:30;101845.56;;;21.91;42.73
46955;BME280;32708;51.212;6.788;2023-05-19T05:41:56;101853.09;;;22.10;42.46
46955;BME280;32708;51.212;6.788;2023-05-19T05:44:22;101856.00;;;22.66;41.85
46955;BME280;32708;51.212;6.788;2023-05-19T05:46:50;101846.69;;;23.08;41.39
46955;BME280;32708;51.212;6.788;2023-05-19T05:49:17;101846.28;;;22.83;41.45
46955;BME280;32708;51.212;6.788;2023-05-19T05:51:45;101848.81;;;22.39;42.58
46955;BME280;32708;51.212;6.788;2023-05-19T05:54:12;101843.66;;;22.41;42.51
46955;BME280;32708;51.212;6.788;2023-05-19T05:56:43;101849.91;;;19.81;46.48
46955;BME280;32708;51.212;6.788;2023-05-19T05:59:10;101846.69;;;23.75;40.36
46955;BME280;32708;51.212;6.788;2023-05-19T06:01:36;101836.75;;;23.11;40.52
46955;BME280;32708;51.212;6.788;2023-05-19T06:04:05;101840.34;;;23.11;40.94
46955;BME280;32708;51.212;6.788;2023-05-19T06:06:31;101837.94;;;23.10;40.30
46955;BME280;32708;51.212;6.788;2023-05-19T06:09:00;101838.00;;;22.60;40.72
46955;BME280;32708;51.212;6.788;2023-05-19T06:11:27;101826.31;;;22.77;39.97
46955;BME280;32708;51.212;6.788;2023-05-19T06:13:56;101828.75;;;22.52;41.35
46955;BME280;32708;51.212;6.788;2023-05-19T06:16:52;101827.03;;;22.21;42.36
46955;BME280;32708;51.212;6.788;2023-05-19T06:19:18;101828.22;;;22.96;40.87
46955;BME280;32708;51.212;6.788;2023-05-19T06:21:45;101824.56;;;22.66;40.68
46955;BME280;32708;51.212;6.788;2023-05-19T06:24:11;101834.19;;;23.28;40.15
46955;BME280;32708;51.212;6.788;2023-05-19T06:26:37;101836.38;;;23.12;40.10
46955;BME280;32708;51.212;6.788;2023-05-19T06:29:03;101838.28;;;24.12;38.35
46955;BME280;32708;51.212;6.788;2023-05-19T06:31:30;101829.44;;;24.07;39.15
46955;BME280;32708;51.212;6.788;2023-05-19T06:34:05;101829.63;;;23.47;38.94
46955;BME280;32708;51.212;6.788;2023-05-19T06:36:35;101813.50;;;23.29;38.56
46955;BME280;32708;51.212;6.788;2023-05-19T06:39:02;101824.34;;;23.38;38.68
46955;BME280;32708;51.212;6.788;2023-05-19T06:41:30;101823.78;;;24.37;37.37
46955;BME280;32708;51.212;6.788;2023-05-19T06:43:56;101821.66;;;23.82;37.72
46955;BME280;32708;51.212;6.788;2023-05-19T06:46:22;101829.59;;;23.10;38.96
46955;BME280;32708;51.212;6.788;2023-05-19T06:48:48;101823.97;;;22.79;39.61
46955;BME280;32708;51.212;6.788;2023-05-19T06:51:16;101824.38;;;24.71;36.70
46955;BME280;32708;51.212;6.788;2023-05-19T06:53:48;101829.25;;;23.85;37.05
46955;BME280;32708;51.212;6.788;2023-05-19T06:56:14;101832.63;;;25.12;36.42
46955;BME280;32708;51.212;6.788;2023-05-19T06:58:41;101829.00;;;23.60;37.73
46955;BME280;32708;51.212;6.788;2023-05-19T07:01:07;101826.28;;;22.47;39.15
46955;BME280;32708;51.212;6.788;2023-05-19T07:03:40;101838.06;;;22.90;39.51
46955;BME280;32708;51.212;6.788;2023-05-19T07:06:07;101832.84;;;24.30;36.96
46955;BME280;32708;51.212;6.788;2023-05-19T07:08:34;101825.94;;;22.26;39.66
46955;BME280;32708;51.212;6.788;2023-05-19T07:11:03;101835.41;;;23.65;37.76
46955;BME280;32708;51.212;6.788;2023-05-19T07:13:29;101829.16;;;24.70;36.73
46955;BME280;32708;51.212;6.788;2023-05-19T07:15:58;101824.81;;;25.71;35.44
46955;BME280;32708;51.212;6.788;2023-05-19T07:18:27;101831.31;;;24.95;35.50
46955;BME280;32708;51.212;6.788;2023-05-19T07:20:57;101831.16;;;23.41;38.10
46955;BME280;32708;51.212;6.788;2023-05-19T07:23:25;101822.38;;;24.71;36.05
46955;BME280;32708;51.212;6.788;2023-05-19T07:25:54;101822.06;;;24.80;35.91
46955;BME280;32708;51.212;6.788;2023-05-19T07:28:21;101825.28;;;24.89;35.68
46955;BME280;32708;51.212;6.788;2023-05-19T07:30:47;101824.88;;;26.60;33.20
46955;BME280;32708;51.212;6.788;2023-05-19T07:33:14;101820.75;;;25.36;34.79
46955;BME280;32708;51.212;6.788;2023-05-19T07:35:40;101815.69;;;26.02;33.97
46955;BME280;32708;51.212;6.788;2023-05-19T07:38:07;101820.41;;;23.76;35.96
46955;BME280;32708;51.212;6.788;2023-05-19T07:40:33;101816.06;;;25.76;34.65
46955;BME280;32708;51.212;6.788;2023-05-19T07:42:59;101816.63;;;23.24;36.97
46955;BME280;32708;51.212;6.788;2023-05-19T07:45:25;101823.50;;;22.74;37.70
46955;BME280;32708;51.212;6.788;2023-05-19T07:47:52;101810.78;;;25.53;33.61
46955;BME280;32708;51.212;6.788;2023-05-19T07:50:19;101808.75;;;25.43;34.68
46955;BME280;32708;51.212;6.788;2023-05-19T07:52:45;101812.53;;;24.88;34.73
46955;BME280;32708;51.212;6.788;2023-05-19T07:55:11;101796.09;;;25.88;33.32
46955;BME280;32708;51.212;6.788;2023-05-19T07:57:38;101797.75;;;24.88;34.51
46955;BME280;32708;51.212;6.788;2023-05-19T08:00:05;101802.25;;;25.07;33.74
46955;BME280;32708;51.212;6.788;2023-05-19T08:02:38;101810.59;;;25.03;34.53
46955;BME280;32708;51.212;6.788;2023-05-19T08:05:04;101805.72;;;24.89;33.97
46955;BME280;32708;51.212;6.788;2023-05-19T08:07:31;101797.78;;;23.48;35.36
46955;BME280;32708;51.212;6.788;2023-05-19T08:09:57;101792.06;;;24.66;33.92
46955;BME280;32708;51.212;6.788;2023-05-19T08:12:24;101784.75;;;24.48;34.48
46955;BME280;32708;51.212;6.788;2023-05-19T08:14:50;101796.97;;;23.81;35.96
46955;BME280;32708;51.212;6.788;2023-05-19T08:17:17;101794.75;;;24.04;35.79
46955;BME280;32708;51.212;6.788;2023-05-19T08:19:43;101788.50;;;24.73;34.04
46955;BME280;32708;51.212;6.788;2023-05-19T08:22:10;101781.69;;;25.90;33.51
46955;BME280;32708;51.212;6.788;2023-05-19T08:24:36;101783.22;;;25.51;33.60
46955;BME280;32708;51.212;6.788;2023-05-19T08:27:03;101777.53;;;25.19;33.76
46955;BME280;32708;51.212;6.788;2023-05-19T08:29:30;101779.94;;;25.17;33.56
46955;BME280;32708;51.212;6.788;2023-05-19T08:31:56;101776.75;;;25.26;32.97
46955;BME280;32708;51.212;6.788;2023-05-19T08:34:23;101775.28;;;26.00;32.27
46955;BME280;32708;51.212;6.788;2023-05-19T08:36:49;101776.81;;;24.57;33.88
46955;BME280;32708;51.212;6.788;2023-05-19T08:39:15;101766.72;;;25.04;33.11
46955;BME280;32708;51.212;6.788;2023-05-19T08:41:44;101770.34;;;25.08;32.56
46955;BME280;32708;51.212;6.788;2023-05-19T08:44:11;101765.31;;;25.85;30.68
46955;BME280;32708;51.212;6.788;2023-05-19T08:46:37;101754.06;;;25.70;30.62
46955;BME280;32708;51.212;6.788;2023-05-19T08:49:12;101753.69;;;25.65;30.41
46955;BME280;32708;51.212;6.788;2023-05-19T08:52:05;101774.44;;;24.04;32.63
46955;BME280;32708;51.212;6.788;2023-05-19T08:54:51;101760.69;;;27.05;30.24
46955;BME280;32708;51.212;6.788;2023-05-19T08:57:23;101752.50;;;26.44;30.88
46955;BME280;32708;51.212;6.788;2023-05-19T08:59:53;101776.19;;;23.41;33.07
46955;BME280;32708;51.212;6.788;2023-05-19T09:02:21;101749.22;;;25.24;32.21
46955;BME280;32708;51.212;6.788;2023-05-19T09:04:48;101759.50;;;25.03;31.72
46955;BME280;32708;51.212;6.788;2023-05-19T09:07:14;101748.13;;;25.72;30.53
46955;BME280;32708;51.212;6.788;2023-05-19T09:09:44;101736.09;;;26.39;30.18
46955;BME280;32708;51.212;6.788;2023-05-19T09:12:12;101739.75;;;25.79;30.86
46955;BME280;32708;51.212;6.788;2023-05-19T09:14:39;101745.69;;;24.55;31.79
46955;BME280;32708;51.212;6.788;2023-05-19T09:17:05;101741.31;;;26.16;30.46
46955;BME280;32708;51.212;6.788;2023-05-19T09:19:31;101743.91;;;24.98;31.60
46955;BME280;32708;51.212;6.788;2023-05-19T09:22:01;101730.06;;;25.30;30.73
46955;BME280;32708;51.212;6.788;2023-05-19T09:24:32;101733.97;;;26.72;29.63
46955;BME280;32708;51.212;6.788;2023-05-19T09:26:58;101727.81;;;27.12;29.42
46955;BME280;32708;51.212;6.788;2023-05-19T09:29:25;101721.31;;;26.10;30.19
46955;BME280;32708;51.212;6.788;2023-05-19T09:31:53;101729.66;;;25.24;31.36
46955;BME280;32708;51.212;6.788;2023-05-19T09:34:21;101730.06;;;27.35;29.34
46955;BME280;32708;51.212;6.788;2023-05-19T09:36:51;101728.31;;;27.59;28.15
46955;BME280;32708;51.212;6.788;2023-05-19T09:39:21;101724.78;;;28.00;28.07
46955;BME280;32708;51.212;6.788;2023-05-19T09:41:54;101723.25;;;26.49;29.94
46955;BME280;32708;51.212;6.788;2023-05-19T09:44:25;101719.28;;;26.43;29.61
46955;BME280;32708;51.212;6.788;2023-05-19T09:46:55;101716.34;;;24.89;30.76
46955;BME280;32708;51.212;6.788;2023-05-19T09:49:28;101716.91;;;25.38;30.81
46955;BME280;32708;51.212;6.788;2023-05-19T09:51:58;101706.53;;;25.60;30.30
46955;BME280;32708;51.212;6.788;2023-05-19T09:54:25;101713.69;;;26.39;29.65
46955;BME280;32708;51.212;6.788;2023-05-19T09:56:58;101699.34;;;26.01;29.90
46955;BME280;32708;51.212;6.788;2023-05-19T09:59:26;101689.66;;;26.34;29.41
46955;BME280;32708;51.212;6.788;2023-05-19T10:01:58;101689.72;;;25.35;30.62
46955;BME280;32708;51.212;6.788;2023-05-19T10:04:27;101691.00;;;25.73;30.53
46955;BME280;32708;51.212;6.788;2023-05-19T10:06:57;101690.09;;;25.12;31.08
46955;BME280;32708;51.212;6.788;2023-05-19T10:09:28;101697.56;;;26.72;29.08
46955;BME280;32708;51.212;6.788;2023-05-19T10:11:58;101705.50;;;24.04;32.08
46955;BME280;32708;51.212;6.788;2023-05-19T10:14:28;101704.16;;;24.42;31.36
46955;BME280;32708;51.212;6.788;2023-05-19T10:16:57;101710.06;;;25.10;30.67
46955;BME280;32708;51.212;6.788;2023-05-19T10:19:28;101700.94;;;25.45;30.79
46955;BME280;32708;51.212;6.788;2023-05-19T10:21:55;101699.97;;;26.70;28.68
46955;BME280;32708;51.212;6.788;2023-05-19T10:24:21;101700.38;;;27.45;29.31
46955;BME280;32708;51.212;6.788;2023-05-19T10:27:02;101700.84;;;26.49;30.41
46955;BME280;32708;51.212;6.788;2023-05-19T10:29:38;101696.16;;;25.78;30.29
46955;BME280;32708;51.212;6.788;2023-05-19T10:32:14;101691.22;;;26.57;30.32
46955;BME280;32708;51.212;6.788;2023-05-19T10:37:52;101692.00;;;24.86;31.81
46955;BME280;32708;51.212;6.788;2023-05-19T10:46:31;101670.97;;;26.03;29.92
46955;BME280;32708;51.212;6.788;2023-05-19T10:48:58;101679.97;;;26.68;30.15
46955;BME280;32708;51.212;6.788;2023-05-19T10:51:30;101686.56;;;25.65;31.54
46955;BME280;32708;51.212;6.788;2023-05-19T10:53:57;101675.94;;;26.76;29.35
46955;BME280;32708;51.212;6.788;2023-05-19T10:56:31;101680.56;;;25.56;30.44
46955;BME280;32708;51.212;6.788;2023-05-19T10:59:00;101685.59;;;26.68;29.86
46955;BME280;32708;51.212;6.788;2023-05-19T11:01:34;101687.66;;;26.42;30.06
46955;BME280;32708;51.212;6.788;2023-05-19T11:04:09;101678.03;;;24.90;30.93
46955;BME280;32708;51.212;6.788;2023-05-19T11:06:37;101674.97;;;25.38;30.86
46955;BME280;32708;51.212;6.788;2023-05-19T11:09:14;101674.06;;;24.98;31.85
46955;BME280;32708;51.212;6.788;2023-05-19T11:11:51;101676.09;;;26.26;30.91
46955;BME280;32708;51.212;6.788;2023-05-19T11:14:26;101676.97;;;25.66;30.84
46955;BME280;32708;51.212;6.788;2023-05-19T11:16:58;101682.16;;;25.92;30.50
46955;BME280;32708;51.212;6.788;2023-05-19T11:19:27;101678.59;;;25.81;30.40
46955;BME280;32708;51.212;6.788;2023-05-19T11:21:54;101677.63;;;24.91;32.07
46955;BME280;32708;51.212;6.788;2023-05-19T11:24:44;101679.25;;;24.96;32.11
46955;BME280;32708;51.212;6.788;2023-05-19T11:27:32;101667.38;;;25.95;30.90
46955;BME280;32708;51.212;6.788;2023-05-19T11:30:09;101671.25;;;24.87;31.75
46955;BME280;32708;51.212;6.788;2023-05-19T11:32:47;101663.22;;;24.79;32.19
46955;BME280;32708;51.212;6.788;2023-05-19T11:35:13;101664.41;;;24.67;31.94
46955;BME280;32708;51.212;6.788;2023-05-19T11:37:41;101663.97;;;24.61;32.00
46955;BME280;32708;51.212;6.788;2023-05-19T11:40:08;101658.97;;;26.02;30.49
46955;BME280;32708;51.212;6.788;2023-05-19T11:42:35;101664.06;;;26.36;30.30
46955;BME280;32708;51.212;6.788;2023-05-19T11:45:03;101662.38;;;26.64;29.96
46955;BME280;32708;51.212;6.788;2023-05-19T11:47:31;101661.38;;;25.22;31.32
46955;BME280;32708;51.212;6.788;2023-05-19T11:49:59;101654.59;;;25.37;31.03
46955;BME280;32708;51.212;6.788;2023-05-19T11:52:26;101650.56;;;26.10;30.52
46955;BME280;32708;51.212;6.788;2023-05-19T11:55:00;101643.88;;;26.84;29.78
46955;BME280;32708;51.212;6.788;2023-05-19T11:57:26;101655.38;;;25.41;31.18
46955;BME280;32708;51.212;6.788;2023-05-19T11:59:52;101652.59;;;25.59;31.14
46955;BME280;32708;51.212;6.788;2023-05-19T12:02:23;101651.00;;;25.55;30.83
46955;BME280;32708;51.212;6.788;2023-05-19T12:04:51;101651.81;;;25.59;31.04
46955;BME280;32708;51.212;6.788;2023-05-19T12:07:23;101652.13;;;26.18;30.95
46955;BME280;32708;51.212;6.788;2023-05-19T12:09:51;101650.69;;;26.83;29.33
46955;BME280;32708;51.212;6.788;2023-05-19T12:12:19;101645.41;;;25.62;31.02
46955;BME280;32708;51.212;6.788;2023-05-19T12:14:48;101644.56;;;26.08;30.01
46955;BME280;32708;51.212;6.788;2023-05-19T12:17:18;101647.25;;;26.36;29.67
46955;BME280;32708;51.212;6.788;2023-05-19T12:19:47;101621.09;;;28.20;27.66
46955;BME280;32708;51.212;6.788;2023-05-19T12:22:18;101632.16;;;26.05;29.94
46955;BME280;32708;51.212;6.788;2023-05-19T12:24:46;101640.53;;;26.19;29.65
46955;BME280;32708;51.212;6.788;2023-05-19T12:27:23;101628.94;;;26.17;30.45
46955;BME280;32708;51.212;6.788;2023-05-19T12:29:55;101623.41;;;26.91;29.65
46955;BME280;32708;51.212;6.788;2023-05-19T12:32:26;101623.31;;;26.24;30.40
46955;BME280;32708;51.212;6.788;2023-05-19T12:34:57;101612.94;;;27.05;28.66
46955;BME280;32708;51.212;6.788;2023-05-19T12:37:26;101619.38;;;26.08;30.38
46955;BME280;32708;51.212;6.788;2023-05-19T12:39:55;101620.09;;;26.40;29.91
46955;BME280;32708;51.212;6.788;2023-05-19T12:42:26;101618.53;;;26.14;30.46
46955;BME280;32708;51.212;6.788;2023-05-19T12:44:58;101616.97;;;26.06;30.84
46955;BME280;32708;51.212;6.788;2023-05-19T12:47:34;101610.22;;;25.71;30.97
46955;BME280;32708;51.212;6.788;2023-05-19T12:50:06;101604.25;;;25.84;30.55
46955;BME280;32708;51.212;6.788;2023-05-19T12:52:44;101607.00;;;26.09;31.71
46955;BME280;32708;51.212;6.788;2023-05-19T12:55:11;101598.91;;;26.25;30.22
46955;BME280;32708;51.212;6.788;2023-05-19T12:57:42;101602.19;;;26.05;30.63
46955;BME280;32708;51.212;6.788;2023-05-19T13:00:16;101596.19;;;26.00;30.83
46955;BME280;32708;51.212;6.788;2023-05-19T13:03:01;101606.34;;;26.64;30.23
46955;BME280;32708;51.212;6.788;2023-05-19T13:05:36;101605.84;;;25.81;30.96
46955;BME280;32708;51.212;6.788;2023-05-19T13:08:15;101597.09;;;25.25;30.83
46955;BME280;32708;51.212;6.788;2023-05-19T13:10:43;101593.44;;;25.71;30.45
46955;BME280;32708;51.212;6.788;2023-05-19T13:13:11;101592.31;;;26.71;29.88
46955;BME280;32708;51.212;6.788;2023-05-19T13:15:43;101593.56;;;26.63;29.49
46955;BME280;32708;51.212;6.788;2023-05-19T13:18:11;101594.44;;;26.49;30.00
46955;BME280;32708;51.212;6.788;2023-05-19T13:20:41;101598.97;;;24.68;31.38
46955;BME280;32708;51.212;6.788;2023-05-19T13:23:12;101599.88;;;25.22;31.18